createdAt,value
2019-01-15T00:00:04.180Z,88.71
2019-01-15T00:01:04.156Z,88.50
2019-01-15T00:02:04.146Z,88.71
2019-01-15T00:03:04.129Z,88.61
2019-01-15T00:04:04.124Z,89.03
2019-01-15T00:05:04.112Z,88.50
2019-01-15T00:06:04.097Z,87.66
2019-01-15T00:07:04.101Z,88.09
2019-01-15T00:08:04.074Z,87.88
2019-01-15T00:09:04.063Z,88.09
2019-01-15T00:10:04.078Z,87.56
2019-01-15T00:11:04.038Z,86.62
2019-01-15T00:12:07.750Z,86.83
2019-01-15T00:13:04.024Z,86.72
2019-01-15T00:14:04.026Z,86.83
2019-01-15T00:15:04.015Z,87.98
2019-01-15T00:16:04.027Z,88.29
2019-01-15T00:17:03.978Z,87.46
2019-01-15T00:18:03.962Z,87.88
2019-01-15T00:19:03.954Z,87.04
2019-01-15T00:20:03.942Z,88.09
2019-01-15T00:21:03.940Z,87.46
2019-01-15T00:22:03.947Z,87.25
2019-01-15T00:23:03.926Z,86.93
2019-01-15T00:24:03.912Z,86.10
2019-01-15T00:25:03.936Z,86.62
2019-01-15T00:26:03.914Z,85.78
2019-01-15T00:27:03.879Z,85.99
2019-01-15T00:28:03.865Z,86.93
2019-01-15T00:29:03.855Z,86.20
2019-01-15T00:30:03.861Z,86.72
2019-01-15T00:31:03.842Z,86.93
2019-01-15T00:32:03.829Z,87.25
2019-01-15T00:33:03.804Z,86.62
2019-01-15T00:34:03.830Z,86.31
2019-01-15T00:35:03.808Z,86.72
2019-01-15T00:36:03.782Z,86.31
2019-01-15T00:37:03.771Z,85.78
2019-01-15T00:38:03.761Z,86.31
2019-01-15T00:39:03.742Z,86.10
2019-01-15T00:40:03.729Z,86.41
2019-01-15T00:41:03.734Z,86.20
2019-01-15T00:42:03.746Z,86.62
2019-01-15T00:43:03.696Z,86.52
2019-01-15T00:44:03.712Z,86.62
2019-01-15T00:45:03.672Z,86.62
2019-01-15T00:46:03.671Z,86.72
2019-01-15T00:47:03.678Z,86.62
2019-01-15T00:48:03.665Z,86.62
2019-01-15T00:49:03.645Z,86.72
2019-01-15T00:50:03.611Z,87.25
2019-01-15T00:51:03.624Z,87.98
2019-01-15T00:52:03.633Z,87.98
2019-01-15T00:53:03.588Z,88.09
2019-01-15T00:54:03.667Z,88.09
2019-01-15T00:55:03.597Z,87.88
2019-01-15T00:56:03.546Z,88.19
2019-01-15T00:57:03.537Z,88.29
2019-01-15T00:58:03.543Z,88.61
2019-01-15T00:59:03.517Z,88.82
2019-01-15T01:00:03.515Z,88.50
2019-01-15T01:01:03.494Z,89.13
2019-01-15T01:02:03.483Z,89.76
2019-01-15T01:03:03.471Z,90.18
2019-01-15T01:04:03.466Z,90.18
2019-01-15T01:05:03.454Z,89.86
2019-01-15T01:06:03.456Z,90.08
2019-01-15T01:07:03.427Z,89.97
2019-01-15T01:08:03.417Z,90.28
2019-01-15T01:09:03.412Z,90.39
2019-01-15T01:10:03.398Z,89.86
2019-01-15T01:11:03.385Z,90.08
2019-01-15T01:12:03.370Z,89.65
2019-01-15T01:13:03.399Z,89.13
2019-01-15T01:14:03.395Z,89.86
2019-01-15T01:15:03.353Z,89.97
2019-01-15T01:16:03.346Z,89.86
2019-01-15T01:17:03.319Z,90.08
2019-01-15T01:18:03.304Z,90.49
2019-01-15T01:19:03.295Z,90.08
2019-01-15T01:20:03.290Z,89.76
2019-01-15T01:21:03.276Z,90.33
2019-01-15T01:22:03.293Z,90.81
2019-01-15T01:23:03.299Z,90.81
2019-01-15T01:24:03.242Z,90.70
2019-01-15T01:25:03.237Z,90.49
2019-01-15T01:26:03.284Z,90.59
2019-01-15T01:27:03.210Z,90.59
2019-01-15T01:28:03.205Z,90.59
2019-01-15T01:29:03.203Z,90.64
2019-01-15T01:30:03.201Z,90.49
2019-01-15T01:31:03.174Z,91.22
2019-01-15T01:32:03.154Z,91.22
2019-01-15T01:33:03.143Z,90.91
2019-01-15T01:34:03.131Z,91.22
2019-01-15T01:35:03.154Z,91.43
2019-01-15T01:36:03.144Z,91.37
2019-01-15T01:37:03.108Z,91.22
2019-01-15T01:38:03.099Z,90.70
2019-01-15T01:39:03.077Z,91.33
2019-01-15T01:40:03.065Z,91.12
2019-01-15T01:41:03.063Z,91.06
2019-01-15T01:42:03.104Z,90.70
2019-01-15T01:43:03.030Z,91.33
2019-01-15T01:44:03.020Z,92.00
2019-01-15T01:45:03.010Z,91.85
2019-01-15T01:46:03.023Z,91.75
2019-01-15T01:47:02.986Z,91.69
2019-01-15T01:48:02.994Z,91.43
2019-01-15T01:49:02.983Z,91.33
2019-01-15T01:50:02.966Z,91.54
2019-01-15T01:51:02.975Z,91.96
2019-01-15T01:52:02.939Z,91.75
2019-01-15T01:53:02.930Z,91.96
2019-01-15T01:54:02.936Z,92.06
2019-01-15T01:55:02.902Z,91.43
2019-01-15T01:56:02.926Z,91.37
2019-01-15T01:57:02.889Z,91.47
2019-01-15T01:58:02.879Z,91.37
2019-01-15T01:59:02.858Z,91.37
2019-01-15T02:00:02.934Z,91.96
2019-01-15T02:01:02.850Z,91.69
2019-01-15T02:02:02.828Z,90.70
2019-01-15T02:03:02.838Z,91.37
2019-01-15T02:04:02.813Z,91.27
2019-01-15T02:05:02.797Z,91.47
2019-01-15T02:06:02.805Z,91.89
2019-01-15T02:07:02.787Z,91.54
2019-01-15T02:08:02.768Z,91.22
2019-01-15T02:09:02.749Z,92.27
2019-01-15T02:10:02.736Z,92.06
2019-01-15T02:11:02.731Z,92.06
2019-01-15T02:12:02.764Z,91.37
2019-01-15T02:13:02.735Z,91.37
2019-01-15T02:14:02.706Z,91.69
2019-01-15T02:15:02.689Z,92.16
2019-01-15T02:16:02.697Z,92.10
2019-01-15T02:17:02.667Z,92.48
2019-01-15T02:18:02.658Z,92.48
2019-01-15T02:19:02.668Z,92.63
2019-01-15T02:20:02.627Z,92.63
2019-01-15T02:21:02.620Z,93.78
2019-01-15T02:22:02.609Z,93.36
2019-01-15T02:23:02.613Z,93.57
2019-01-15T02:24:02.637Z,93.67
2019-01-15T02:25:02.578Z,93.26
2019-01-15T02:26:02.560Z,93.99
2019-01-15T02:27:02.558Z,93.26
2019-01-15T02:28:02.544Z,93.46
2019-01-15T02:29:02.536Z,93.26
2019-01-15T02:30:02.553Z,93.57
2019-01-15T02:31:02.549Z,93.15
2019-01-15T02:32:02.495Z,93.46
2019-01-15T02:33:02.487Z,93.61
2019-01-15T02:34:02.482Z,93.26
2019-01-15T02:35:02.467Z,93.78
2019-01-15T02:36:02.453Z,94.82
2019-01-15T02:37:02.464Z,93.71
2019-01-15T02:38:02.438Z,94.72
2019-01-15T02:39:02.439Z,93.99
2019-01-15T02:40:02.446Z,93.78
2019-01-15T02:41:02.442Z,93.78
2019-01-15T02:42:02.387Z,93.67
2019-01-15T02:43:02.377Z,93.46
2019-01-15T02:44:02.415Z,92.63
2019-01-15T02:45:02.367Z,92.83
2019-01-15T02:46:02.379Z,92.63
2019-01-15T02:47:02.367Z,92.46
2019-01-15T02:48:02.329Z,92.77
2019-01-15T02:49:02.326Z,92.21
2019-01-15T02:50:02.305Z,92.10
2019-01-15T02:51:02.291Z,92.00
2019-01-15T02:52:02.285Z,91.89
2019-01-15T02:53:02.308Z,92.31
2019-01-15T02:54:02.277Z,92.00
2019-01-15T02:55:02.260Z,91.89
2019-01-15T02:56:02.238Z,92.00
2019-01-15T02:57:02.228Z,91.69
2019-01-15T02:58:02.214Z,91.58
2019-01-15T02:59:02.207Z,91.79
2019-01-15T03:00:02.223Z,92.10
2019-01-15T03:01:02.182Z,91.69
2019-01-15T03:02:02.175Z,91.58
2019-01-15T03:03:02.165Z,91.75
2019-01-15T03:04:02.149Z,91.22
2019-01-15T03:05:02.138Z,91.47
2019-01-15T03:06:02.654Z,91.47
2019-01-15T03:07:02.113Z,90.84
2019-01-15T03:08:02.102Z,91.27
2019-01-15T03:09:02.112Z,90.74
2019-01-15T03:10:02.097Z,90.95
2019-01-15T03:11:02.081Z,91.16
2019-01-15T03:12:02.085Z,90.91
2019-01-15T03:13:02.069Z,91.16
2019-01-15T03:14:02.040Z,91.16
2019-01-15T03:15:02.031Z,90.81
2019-01-15T03:16:02.035Z,90.70
2019-01-15T03:17:02.003Z,91.06
2019-01-15T03:18:02.017Z,90.59
2019-01-15T03:19:01.988Z,90.49
2019-01-15T03:20:01.979Z,90.74
2019-01-15T03:21:01.974Z,90.18
2019-01-15T03:22:01.961Z,90.28
2019-01-15T03:23:01.939Z,90.49
2019-01-15T03:24:01.945Z,90.81
2019-01-15T03:25:01.932Z,90.33
2019-01-15T03:26:01.922Z,90.08
2019-01-15T03:27:01.912Z,90.59
2019-01-15T03:28:01.890Z,90.64
2019-01-15T03:29:01.873Z,90.64
2019-01-15T03:30:01.863Z,90.70
2019-01-15T03:31:01.862Z,90.49
2019-01-15T03:32:01.889Z,90.28
2019-01-15T03:33:01.866Z,90.39
2019-01-15T03:34:01.850Z,90.70
2019-01-15T03:35:01.825Z,90.28
2019-01-15T03:36:01.806Z,90.39
2019-01-15T03:37:01.812Z,90.84
2019-01-15T03:38:01.837Z,90.81
2019-01-15T03:39:01.807Z,90.59
2019-01-15T03:40:01.763Z,90.18
2019-01-15T03:41:01.752Z,90.70
2019-01-15T03:42:01.763Z,90.84
2019-01-15T03:43:04.017Z,90.91
2019-01-15T03:44:01.715Z,91.37
2019-01-15T03:45:01.727Z,90.39
2019-01-15T03:46:04.427Z,91.02
2019-01-15T03:47:01.687Z,90.91
2019-01-15T03:48:01.711Z,90.91
2019-01-15T03:49:01.669Z,91.06
2019-01-15T03:50:01.642Z,90.91
2019-01-15T03:51:01.635Z,90.74
2019-01-15T03:52:01.662Z,90.84
2019-01-15T03:53:01.623Z,91.06
2019-01-15T03:54:01.622Z,90.74
2019-01-15T03:55:01.618Z,90.95
2019-01-15T03:56:01.588Z,91.06
2019-01-15T03:57:01.594Z,90.64
2019-01-15T03:58:01.556Z,91.06
2019-01-15T03:59:01.556Z,90.43
2019-01-15T04:00:01.537Z,90.84
2019-01-15T04:01:01.538Z,91.16
2019-01-15T04:02:01.519Z,90.95
2019-01-15T04:03:01.520Z,90.95
2019-01-15T04:04:01.513Z,90.95
2019-01-15T04:05:01.525Z,91.37
2019-01-15T04:06:01.478Z,91.58
2019-01-15T04:07:01.460Z,91.89
2019-01-15T04:08:01.455Z,91.47
2019-01-15T04:09:01.444Z,91.69
2019-01-15T04:10:01.481Z,91.58
2019-01-15T04:11:01.442Z,91.89
2019-01-15T04:12:01.449Z,91.89
2019-01-15T04:13:01.405Z,92.00
2019-01-15T04:14:01.390Z,91.79
2019-01-15T04:15:01.382Z,92.31
2019-01-15T04:16:01.365Z,91.47
2019-01-15T04:17:01.383Z,91.69
2019-01-15T04:18:01.346Z,92.21
2019-01-15T04:19:01.429Z,92.31
2019-01-15T04:20:01.340Z,92.00
2019-01-15T04:21:01.314Z,92.00
2019-01-15T04:22:01.303Z,92.00
2019-01-15T04:23:01.289Z,92.06
2019-01-15T04:24:01.277Z,91.27
2019-01-15T04:25:01.265Z,91.27
2019-01-15T04:26:01.287Z,92.00
2019-01-15T04:27:01.297Z,91.89
2019-01-15T04:28:01.245Z,91.85
2019-01-15T04:29:01.226Z,91.58
2019-01-15T04:30:01.214Z,91.96
2019-01-15T04:31:01.208Z,91.54
2019-01-15T04:32:01.190Z,91.79
2019-01-15T04:33:01.218Z,91.58
2019-01-15T04:34:01.180Z,91.96
2019-01-15T04:35:01.181Z,91.75
2019-01-15T04:36:01.152Z,91.69
2019-01-15T04:37:01.132Z,91.64
2019-01-15T04:38:01.129Z,91.79
2019-01-15T04:39:01.154Z,91.85
2019-01-15T04:40:01.114Z,91.96
2019-01-15T04:41:01.102Z,91.64
2019-01-15T04:42:01.078Z,91.37
2019-01-15T04:43:01.072Z,90.91
2019-01-15T04:44:01.065Z,90.95
2019-01-15T04:45:01.077Z,91.02
2019-01-15T04:46:01.051Z,90.49
2019-01-15T04:47:01.054Z,90.11
2019-01-15T04:48:01.043Z,90.18
2019-01-15T04:49:02.624Z,90.01
2019-01-15T04:50:01.022Z,90.22
2019-01-15T04:51:00.978Z,89.17
2019-01-15T04:52:00.997Z,89.17
2019-01-15T04:53:01.021Z,90.01
2019-01-15T04:54:00.950Z,89.07
2019-01-15T04:55:00.948Z,89.07
2019-01-15T04:56:00.931Z,88.65
2019-01-15T04:57:00.922Z,88.96
2019-01-15T04:58:00.934Z,88.96
2019-01-15T04:59:00.892Z,89.28
2019-01-15T05:00:00.884Z,89.70
2019-01-15T05:01:00.876Z,90.01
2019-01-15T05:02:00.890Z,89.80
2019-01-15T05:03:00.881Z,89.90
2019-01-15T05:04:00.864Z,89.90
2019-01-15T05:05:00.838Z,90.22
2019-01-15T05:06:00.879Z,90.53
2019-01-15T05:07:00.814Z,90.49
2019-01-15T05:08:00.809Z,90.53
2019-01-15T05:09:00.790Z,90.84
2019-01-15T05:10:00.770Z,90.64
2019-01-15T05:11:00.765Z,90.64
2019-01-15T05:12:00.753Z,91.37
2019-01-15T05:13:00.797Z,91.06
2019-01-15T05:14:00.741Z,91.06
2019-01-15T05:15:00.721Z,90.84
2019-01-15T05:16:00.703Z,91.69
2019-01-15T05:17:00.697Z,91.47
2019-01-15T05:18:00.713Z,91.27
2019-01-15T05:19:00.677Z,90.43
2019-01-15T05:20:00.690Z,90.95
2019-01-15T05:21:00.656Z,90.95
2019-01-15T05:22:00.674Z,90.74
2019-01-15T05:23:00.650Z,90.95
2019-01-15T05:24:00.633Z,91.06
2019-01-15T05:25:00.677Z,90.74
2019-01-15T05:26:00.605Z,90.95
2019-01-15T05:27:00.591Z,90.84
2019-01-15T05:28:00.578Z,90.84
2019-01-15T05:29:00.572Z,90.74
2019-01-15T05:30:00.586Z,90.33
2019-01-15T05:31:00.545Z,90.11
2019-01-15T05:32:00.550Z,90.43
2019-01-15T05:33:00.547Z,90.11
2019-01-15T05:34:00.549Z,90.43
2019-01-15T05:35:00.528Z,91.06
2019-01-15T05:36:00.512Z,90.64
2019-01-15T05:37:00.486Z,90.53
2019-01-15T05:38:00.495Z,90.74
2019-01-15T05:39:00.475Z,91.27
2019-01-15T05:40:00.451Z,91.37
2019-01-15T05:41:00.496Z,90.53
2019-01-15T05:42:00.469Z,90.74
2019-01-15T05:43:00.440Z,90.84
2019-01-15T05:44:00.415Z,90.84
2019-01-15T05:45:00.415Z,91.47
2019-01-15T05:46:00.504Z,91.69
2019-01-15T05:47:00.364Z,91.58
2019-01-15T05:48:00.356Z,92.00
2019-01-15T05:49:00.342Z,91.69
2019-01-15T05:50:00.364Z,92.10
2019-01-15T05:51:00.347Z,91.69
2019-01-15T05:52:00.311Z,91.58
2019-01-15T05:53:00.305Z,92.00
2019-01-15T05:54:00.292Z,91.89
2019-01-15T05:55:00.288Z,91.89
2019-01-15T05:56:00.290Z,92.00
2019-01-15T05:57:00.283Z,91.89
2019-01-15T05:58:00.260Z,91.79
2019-01-15T05:59:00.244Z,91.37
2019-01-15T06:00:00.254Z,91.58
2019-01-15T06:01:00.257Z,91.89
2019-01-15T06:02:00.218Z,91.79
2019-01-15T06:03:00.214Z,91.89
2019-01-15T06:04:00.203Z,91.89
2019-01-15T06:05:00.195Z,91.69
2019-01-15T06:06:00.177Z,90.53
2019-01-15T06:07:00.180Z,90.84
2019-01-15T06:08:00.141Z,91.06
2019-01-15T06:09:00.150Z,91.06
2019-01-15T06:10:00.210Z,91.16
2019-01-15T06:11:00.138Z,90.84
2019-01-15T06:12:00.125Z,90.84
2019-01-15T06:13:00.111Z,90.53
2019-01-15T06:14:00.116Z,90.74
2019-01-15T06:15:00.180Z,90.84
2019-01-15T06:16:00.071Z,90.95
2019-01-15T06:17:00.054Z,91.02
2019-01-15T06:18:00.057Z,90.84
2019-01-15T06:19:00.022Z,90.84
2019-01-15T06:20:00.002Z,90.53
2019-01-15T06:21:00.006Z,90.64
2019-01-15T06:22:00.034Z,90.74
2019-01-15T06:22:59.977Z,90.74
2019-01-15T06:23:59.971Z,90.84
2019-01-15T06:24:59.955Z,90.39
2019-01-15T06:25:59.960Z,90.53
2019-01-15T06:26:59.941Z,90.53
2019-01-15T06:27:59.966Z,91.06
2019-01-15T06:28:59.914Z,90.74
2019-01-15T06:29:59.930Z,90.22
2019-01-15T06:30:59.918Z,90.43
2019-01-15T06:31:59.900Z,90.74
2019-01-15T06:32:59.901Z,90.11
2019-01-15T06:33:59.909Z,90.11
2019-01-15T06:34:59.853Z,90.74
2019-01-15T06:35:59.839Z,90.22
2019-01-15T06:36:59.834Z,90.11
2019-01-15T06:37:59.864Z,90.11
2019-01-15T06:38:59.822Z,90.28
2019-01-15T06:39:59.853Z,89.97
2019-01-15T06:40:59.784Z,90.39
2019-01-15T06:41:59.773Z,90.22
2019-01-15T06:42:59.803Z,90.43
2019-01-15T06:43:59.756Z,89.97
2019-01-15T06:44:59.782Z,90.39
2019-01-15T06:45:59.731Z,90.28
2019-01-15T06:46:59.794Z,90.28
2019-01-15T06:47:59.726Z,90.39
2019-01-15T06:48:59.733Z,90.49
2019-01-15T06:49:59.701Z,89.28
2019-01-15T06:50:59.673Z,89.13
2019-01-15T06:51:59.675Z,89.55
2019-01-15T06:52:59.666Z,88.71
2019-01-15T06:53:59.696Z,89.03
2019-01-15T06:54:59.701Z,89.13
2019-01-15T06:55:59.617Z,88.96
2019-01-15T06:56:59.629Z,88.50
2019-01-15T06:57:59.598Z,88.71
2019-01-15T06:58:59.577Z,88.50
2019-01-15T06:59:59.632Z,88.40
2019-01-15T07:00:59.557Z,89.34
2019-01-15T07:01:59.561Z,88.71
2019-01-15T07:02:59.595Z,88.40
2019-01-15T07:03:59.527Z,88.29
2019-01-15T07:04:59.547Z,88.92
2019-01-15T07:05:59.528Z,88.71
2019-01-15T07:06:59.491Z,89.45
2019-01-15T07:07:59.481Z,89.13
2019-01-15T07:08:59.471Z,89.03
2019-01-15T07:09:59.489Z,89.03
2019-01-15T07:10:59.476Z,88.71
2019-01-15T07:11:59.445Z,88.92
2019-01-15T07:12:59.480Z,88.71
2019-01-15T07:13:59.458Z,89.23
2019-01-15T07:14:59.405Z,88.92
2019-01-15T07:15:59.420Z,88.61
2019-01-15T07:16:59.393Z,88.92
2019-01-15T07:17:59.376Z,88.92
2019-01-15T07:18:59.358Z,88.92
2019-01-15T07:19:59.462Z,89.13
2019-01-15T07:20:59.351Z,89.45
2019-01-15T07:21:59.335Z,89.13
2019-01-15T07:22:59.323Z,88.92
2019-01-15T07:23:59.318Z,88.92
2019-01-15T07:24:59.297Z,88.82
2019-01-15T07:25:59.325Z,88.61
2019-01-15T07:26:59.268Z,88.50
2019-01-15T07:27:59.278Z,88.92
2019-01-15T07:28:59.250Z,88.61
2019-01-15T07:29:59.238Z,88.88
2019-01-15T07:30:59.279Z,88.71
2019-01-15T07:31:59.250Z,88.15
2019-01-15T07:32:59.205Z,88.67
2019-01-15T07:33:59.199Z,88.67
2019-01-15T07:34:59.190Z,88.88
2019-01-15T07:35:59.210Z,88.40
2019-01-15T07:36:59.174Z,88.92
2019-01-15T07:37:59.209Z,89.13
2019-01-15T07:38:59.142Z,88.92
2019-01-15T07:39:59.133Z,88.82
2019-01-15T07:40:59.116Z,88.88
2019-01-15T07:41:59.111Z,88.88
2019-01-15T07:42:59.093Z,88.15
2019-01-15T07:44:04.298Z,88.57
2019-01-15T07:45:00.179Z,88.46
2019-01-15T07:45:59.079Z,88.04
2019-01-15T07:46:59.060Z,87.42
2019-01-15T07:47:59.041Z,87.94
2019-01-15T07:48:59.050Z,88.46
2019-01-15T07:49:59.018Z,88.04
2019-01-15T07:50:59.010Z,88.57
2019-01-15T07:51:59.002Z,88.57
2019-01-15T07:52:59.091Z,88.46
2019-01-15T07:53:58.977Z,88.04
2019-01-15T07:54:58.961Z,88.04
2019-01-15T07:55:58.964Z,88.32
2019-01-15T07:56:58.948Z,88.04
2019-01-15T07:57:59.013Z,88.46
2019-01-15T07:58:58.931Z,88.26
2019-01-15T07:59:58.956Z,87.94
2019-01-15T08:00:58.913Z,88.36
2019-01-15T08:01:58.914Z,87.94
2019-01-15T08:02:58.875Z,88.04
2019-01-15T08:03:58.890Z,88.36
2019-01-15T08:04:58.852Z,88.42
2019-01-15T08:05:58.853Z,88.36
2019-01-15T08:06:58.841Z,87.90
2019-01-15T08:07:58.818Z,88.46
2019-01-15T08:08:58.870Z,88.11
2019-01-15T08:09:58.809Z,87.90
2019-01-15T08:10:58.804Z,88.53
2019-01-15T08:11:58.805Z,88.46
2019-01-15T08:12:58.777Z,88.21
2019-01-15T08:13:58.762Z,88.21
2019-01-15T08:14:58.767Z,88.01
2019-01-15T08:15:58.752Z,87.80
2019-01-15T08:16:58.755Z,88.01
2019-01-15T08:17:58.721Z,87.69
2019-01-15T08:18:58.712Z,87.80
2019-01-15T08:19:58.712Z,87.48
2019-01-15T08:20:58.689Z,88.01
2019-01-15T08:21:58.694Z,88.11
2019-01-15T08:22:58.667Z,87.59
2019-01-15T08:23:58.643Z,88.11
2019-01-15T08:24:58.670Z,87.90
2019-01-15T08:25:58.649Z,87.59
2019-01-15T08:26:58.640Z,87.80
2019-01-15T08:27:58.615Z,87.69
2019-01-15T08:28:58.669Z,87.69
2019-01-15T08:29:58.624Z,87.59
2019-01-15T08:30:58.622Z,86.65
2019-01-15T08:31:58.562Z,87.80
2019-01-15T08:32:58.547Z,87.69
2019-01-15T08:33:58.580Z,87.80
2019-01-15T08:34:58.569Z,87.59
2019-01-15T08:35:58.544Z,86.75
2019-01-15T08:36:58.506Z,87.17
2019-01-15T08:37:58.513Z,86.65
2019-01-15T08:38:58.500Z,86.29
2019-01-15T08:39:58.477Z,86.51
2019-01-15T08:40:58.507Z,86.61
2019-01-15T08:41:58.491Z,86.08
2019-01-15T08:42:58.444Z,86.51
2019-01-15T08:43:58.437Z,85.88
2019-01-15T08:44:58.430Z,85.67
2019-01-15T08:45:58.401Z,85.98
2019-01-15T08:46:58.393Z,85.77
2019-01-15T08:47:58.413Z,85.88
2019-01-15T08:48:58.780Z,85.77
2019-01-15T08:49:58.539Z,85.67
2019-01-15T08:50:58.356Z,86.51
2019-01-15T08:51:58.347Z,85.67
2019-01-15T08:52:58.355Z,85.77
2019-01-15T08:53:58.317Z,85.77
2019-01-15T08:54:58.378Z,85.88
2019-01-15T08:55:58.294Z,86.40
2019-01-15T08:56:58.281Z,85.88
2019-01-15T08:57:58.291Z,85.88
2019-01-15T08:58:58.286Z,85.67
2019-01-15T08:59:58.256Z,85.25
2019-01-15T09:00:58.254Z,86.08
2019-01-15T09:01:58.243Z,85.46
2019-01-15T09:02:58.246Z,85.46
2019-01-15T09:03:58.210Z,85.11
2019-01-15T09:04:58.196Z,86.40
2019-01-15T09:05:58.236Z,85.46
2019-01-15T09:06:58.174Z,85.77
2019-01-15T09:07:58.162Z,84.94
2019-01-15T09:08:58.149Z,85.04
2019-01-15T09:09:58.148Z,85.04
2019-01-15T09:10:58.190Z,84.83
2019-01-15T09:11:58.122Z,84.79
2019-01-15T09:12:58.110Z,84.52
2019-01-15T09:13:58.107Z,84.79
2019-01-15T09:14:58.091Z,84.52
2019-01-15T09:15:58.078Z,84.27
2019-01-15T09:16:58.062Z,84.52
2019-01-15T09:17:58.060Z,84.52
2019-01-15T09:18:58.056Z,84.69
2019-01-15T09:19:58.041Z,84.17
2019-01-15T09:20:58.080Z,85.04
2019-01-15T09:21:58.029Z,83.78
2019-01-15T09:22:58.005Z,84.06
2019-01-15T09:23:57.987Z,83.78
2019-01-15T09:24:58.028Z,83.58
2019-01-15T09:25:57.979Z,83.54
2019-01-15T09:26:57.977Z,85.04
2019-01-15T09:27:57.958Z,84.38
2019-01-15T09:28:57.943Z,84.20
2019-01-15T09:29:57.939Z,84.27
2019-01-15T09:30:57.910Z,84.00
2019-01-15T09:31:57.942Z,83.64
2019-01-15T09:32:57.936Z,83.95
2019-01-15T09:33:57.896Z,83.01
2019-01-15T09:34:57.897Z,83.01
2019-01-15T09:35:57.871Z,83.44
2019-01-15T09:36:57.863Z,83.44
2019-01-15T09:37:57.840Z,83.64
2019-01-15T09:38:57.837Z,83.23
2019-01-15T09:39:57.826Z,83.64
2019-01-15T09:40:57.843Z,83.54
2019-01-15T09:41:57.795Z,83.44
2019-01-15T09:42:57.810Z,83.23
2019-01-15T09:43:57.777Z,82.70
2019-01-15T09:44:58.560Z,82.60
2019-01-15T09:45:57.766Z,82.98
2019-01-15T09:46:57.741Z,83.18
2019-01-15T09:47:57.735Z,83.75
2019-01-15T09:48:57.719Z,83.12
2019-01-15T09:49:57.727Z,83.12
2019-01-15T09:50:57.718Z,82.81
2019-01-15T09:51:57.692Z,82.91
2019-01-15T09:52:57.691Z,82.39
2019-01-15T09:53:57.664Z,82.18
2019-01-15T09:54:57.654Z,83.18
2019-01-15T09:55:57.668Z,82.39
2019-01-15T09:56:57.632Z,82.50
2019-01-15T09:57:57.614Z,82.81
2019-01-15T09:58:57.601Z,82.91
2019-01-15T09:59:57.603Z,82.29
2019-01-15T10:00:57.574Z,82.50
2019-01-15T10:01:57.658Z,82.60
2019-01-15T10:02:57.560Z,82.18
2019-01-15T10:03:57.559Z,82.18
2019-01-15T10:04:57.538Z,82.39
2019-01-15T10:05:57.530Z,82.18
2019-01-15T10:06:57.526Z,82.39
2019-01-15T10:07:57.529Z,81.97
2019-01-15T10:08:57.498Z,81.97
2019-01-15T10:09:57.603Z,82.29
2019-01-15T10:10:57.476Z,82.07
2019-01-15T10:11:57.484Z,82.46
2019-01-15T10:12:57.451Z,82.35
2019-01-15T10:13:57.438Z,81.76
2019-01-15T10:14:57.459Z,82.04
2019-01-15T10:15:57.438Z,82.04
2019-01-15T10:16:57.405Z,82.35
2019-01-15T10:17:57.430Z,82.14
2019-01-15T10:18:57.384Z,82.04
2019-01-15T10:19:57.391Z,81.41
2019-01-15T10:20:57.382Z,80.99
2019-01-15T10:21:57.382Z,80.68
2019-01-15T10:22:57.368Z,80.79
2019-01-15T10:23:57.369Z,80.96
2019-01-15T10:24:57.323Z,80.75
2019-01-15T10:25:57.337Z,81.10
2019-01-15T10:26:57.342Z,81.59
2019-01-15T10:27:57.290Z,81.79
2019-01-15T10:28:57.282Z,82.21
2019-01-15T10:29:59.267Z,82.31
2019-01-15T10:30:57.249Z,81.23
2019-01-15T10:31:57.239Z,81.34
2019-01-15T10:32:57.246Z,79.98
2019-01-15T10:33:57.241Z,80.71
2019-01-15T10:34:57.209Z,80.75
2019-01-15T10:35:57.197Z,80.30
2019-01-15T10:36:57.179Z,80.30
2019-01-15T10:37:57.197Z,80.82
2019-01-15T10:38:57.179Z,81.13
2019-01-15T10:39:57.174Z,81.23
2019-01-15T10:40:57.154Z,81.34
2019-01-15T10:41:57.133Z,81.72
2019-01-15T10:42:57.145Z,81.41
2019-01-15T10:43:57.107Z,80.99
2019-01-15T10:44:57.112Z,81.30
2019-01-15T10:45:57.135Z,80.99
2019-01-15T10:46:57.074Z,80.82
2019-01-15T10:47:57.092Z,80.68
2019-01-15T10:48:57.062Z,80.78
2019-01-15T10:49:57.038Z,80.16
2019-01-15T10:50:57.051Z,79.98
2019-01-15T10:51:57.030Z,80.68
2019-01-15T10:52:57.043Z,80.36
2019-01-15T10:53:57.000Z,80.88
2019-01-15T10:54:56.991Z,80.54
2019-01-15T10:55:57.006Z,81.30
2019-01-15T10:56:57.002Z,81.30
2019-01-15T10:57:58.395Z,80.99
2019-01-15T10:58:56.946Z,80.57
2019-01-15T10:59:56.929Z,80.57
2019-01-15T11:00:56.925Z,80.54
2019-01-15T11:01:56.932Z,80.26
2019-01-15T11:02:56.902Z,80.05
2019-01-15T11:03:56.891Z,80.74
2019-01-15T11:04:56.884Z,80.85
2019-01-15T11:05:56.869Z,80.47
2019-01-15T11:06:56.875Z,80.05
2019-01-15T11:07:56.842Z,80.22
2019-01-15T11:08:56.852Z,80.57
2019-01-15T11:09:56.821Z,80.36
2019-01-15T11:10:56.814Z,81.20
2019-01-15T11:11:56.802Z,81.72
2019-01-15T11:12:56.824Z,80.78
2019-01-15T11:13:56.778Z,81.30
2019-01-15T11:14:56.794Z,80.57
2019-01-15T11:15:56.777Z,80.78
2019-01-15T11:16:56.747Z,80.88
2019-01-15T11:17:56.790Z,81.20
2019-01-15T11:18:56.718Z,80.54
2019-01-15T11:19:56.714Z,80.02
2019-01-15T11:20:56.700Z,80.54
2019-01-15T11:21:56.705Z,80.99
2019-01-15T11:22:56.722Z,79.94
2019-01-15T11:23:56.668Z,79.91
2019-01-15T11:24:56.656Z,80.64
2019-01-15T11:25:56.674Z,80.64
2019-01-15T11:26:56.782Z,79.63
2019-01-15T11:27:56.642Z,79.28
2019-01-15T11:28:56.634Z,79.11
2019-01-15T11:29:56.637Z,79.94
2019-01-15T11:30:56.615Z,80.12
2019-01-15T11:31:56.599Z,80.47
2019-01-15T11:32:56.598Z,80.36
2019-01-15T11:33:56.695Z,80.22
2019-01-15T11:34:56.541Z,80.33
2019-01-15T11:35:56.529Z,80.54
2019-01-15T11:36:56.535Z,79.80
2019-01-15T11:37:56.554Z,80.22
2019-01-15T11:38:56.512Z,80.05
2019-01-15T11:39:56.515Z,80.95
2019-01-15T11:40:56.498Z,80.95
2019-01-15T11:41:56.510Z,79.60
2019-01-15T11:42:56.475Z,79.49
2019-01-15T11:43:56.451Z,79.60
2019-01-15T11:45:03.212Z,78.97
2019-01-15T11:45:57.425Z,79.28
2019-01-15T11:46:56.408Z,78.45
2019-01-15T11:47:56.414Z,79.08
2019-01-15T11:48:56.386Z,78.97
2019-01-15T11:49:56.397Z,79.28
2019-01-15T11:50:56.410Z,79.60
2019-01-15T11:51:56.378Z,79.28
2019-01-15T11:52:56.401Z,79.60
2019-01-15T11:53:56.363Z,79.18
2019-01-15T11:54:56.323Z,79.49
2019-01-15T11:55:56.333Z,79.25
2019-01-15T11:56:56.308Z,79.08
2019-01-15T11:57:56.294Z,79.49
2019-01-15T11:58:56.286Z,80.08
2019-01-15T11:59:56.287Z,77.93
2019-01-15T12:00:56.262Z,78.14
2019-01-15T12:01:56.260Z,79.18
2019-01-15T12:02:56.267Z,79.25
2019-01-15T12:03:56.260Z,79.14
2019-01-15T12:04:56.220Z,79.14
2019-01-15T12:05:56.215Z,78.20
2019-01-15T12:06:56.204Z,78.10
2019-01-15T12:07:56.192Z,78.83
2019-01-15T12:08:56.222Z,78.94
2019-01-15T12:09:56.165Z,78.20
2019-01-15T12:10:56.205Z,76.86
2019-01-15T12:11:56.146Z,77.69
2019-01-15T12:12:56.130Z,79.18
2019-01-15T12:13:56.121Z,78.00
2019-01-15T12:14:56.118Z,77.37
2019-01-15T12:15:56.151Z,79.18
2019-01-15T12:16:56.081Z,78.52
2019-01-15T12:17:56.090Z,79.04
2019-01-15T12:18:56.075Z,78.31
2019-01-15T12:19:56.073Z,78.00
2019-01-15T12:20:56.053Z,78.00
2019-01-15T12:21:56.042Z,78.20
2019-01-15T12:22:56.017Z,77.89
2019-01-15T12:23:56.058Z,78.94
2019-01-15T12:24:56.009Z,78.00
2019-01-15T12:25:55.990Z,78.31
2019-01-15T12:26:55.996Z,77.58
2019-01-15T12:27:55.973Z,78.10
2019-01-15T12:28:55.958Z,79.14
2019-01-15T12:29:55.935Z,78.20
2019-01-15T12:30:55.986Z,78.20
2019-01-15T12:31:55.923Z,78.10
2019-01-15T12:32:55.932Z,77.48
2019-01-15T12:33:55.931Z,77.69
2019-01-15T12:34:55.928Z,78.20
2019-01-15T12:35:55.867Z,77.89
2019-01-15T12:36:56.646Z,77.69
2019-01-15T12:37:55.874Z,77.96
2019-01-15T12:38:55.850Z,79.11
2019-01-15T12:39:55.828Z,79.00
2019-01-15T12:40:55.813Z,77.75
2019-01-15T12:41:55.803Z,77.75
2019-01-15T12:42:55.832Z,77.55
2019-01-15T12:43:55.790Z,77.03
2019-01-15T12:44:55.774Z,76.92
2019-01-15T12:45:55.792Z,76.72
2019-01-15T12:46:55.746Z,77.34
2019-01-15T12:47:55.747Z,77.55
2019-01-15T12:48:55.726Z,77.44
2019-01-15T12:49:55.721Z,78.17
2019-01-15T12:50:55.746Z,78.17
2019-01-15T12:51:55.705Z,78.59